sensor_id;sensor_type;location;lat;lon;timestamp;pressure;altitude;pressure_sealevel;temperature;humidity
27805;BME280;15183;51.350;11.102;2022-07-23T00:02:11;100187.22;;;25.50;42.91
27805;BME280;15183;51.350;11.102;2022-07-23T00:04:37;100180.34;;;25.53;42.92
27805;BME280;15183;51.350;11.102;2022-07-23T00:07:04;100185.94;;;25.56;42.81
27805;BME280;15183;51.350;11.102;2022-07-23T00:09:30;100194.88;;;25.57;43.16
27805;BME280;15183;51.350;11.102;2022-07-23T00:11:57;100194.09;;;25.56;42.75
27805;BME280;15183;51.350;11.102;2022-07-23T00:14:23;100185.31;;;25.60;42.88
27805;BME280;15183;51.350;11.102;2022-07-23T00:16:50;100195.38;;;25.59;43.00
27805;BME280;15183;51.350;11.102;2022-07-23T00:19:16;100198.41;;;25.57;43.20
27805;BME280;15183;51.350;11.102;2022-07-23T00:21:43;100196.81;;;25.65;42.61
27805;BME280;15183;51.350;11.102;2022-07-23T00:24:09;100201.91;;;25.67;43.22
27805;BME280;15183;51.350;11.102;2022-07-23T00:26:35;100196.94;;;25.69;42.70
27805;BME280;15183;51.350;11.102;2022-07-23T00:29:02;100199.03;;;25.72;43.17
27805;BME280;15183;51.350;11.102;2022-07-23T00:31:28;100196.47;;;25.67;42.62
27805;BME280;15183;51.350;11.102;2022-07-23T00:33:55;100205.75;;;25.75;42.89
27805;BME280;15183;51.350;11.102;2022-07-23T00:36:23;100206.53;;;25.75;42.21
27805;BME280;15183;51.350;11.102;2022-07-23T00:38:50;100195.66;;;25.75;42.79
27805;BME280;15183;51.350;11.102;2022-07-23T00:41:16;100183.56;;;25.72;43.08
27805;BME280;15183;51.350;11.102;2022-07-23T00:43:43;100193.59;;;25.81;42.57
27805;BME280;15183;51.350;11.102;2022-07-23T00:46:09;100184.81;;;25.75;43.17
27805;BME280;15183;51.350;11.102;2022-07-23T00:48:36;100190.41;;;25.52;43.67
27805;BME280;15183;51.350;11.102;2022-07-23T00:51:03;100188.44;;;25.35;43.65
27805;BME280;15183;51.350;11.102;2022-07-23T00:53:29;100187.63;;;25.17;43.39
27805;BME280;15183;51.350;11.102;2022-07-23T00:55:58;100203.84;;;25.08;43.85
27805;BME280;15183;51.350;11.102;2022-07-23T00:58:25;100209.38;;;24.94;44.18
27805;BME280;15183;51.350;11.102;2022-07-23T01:00:51;100202.09;;;24.72;43.99
27805;BME280;15183;51.350;11.102;2022-07-23T01:03:17;100206.41;;;24.73;44.70
27805;BME280;15183;51.350;11.102;2022-07-23T01:05:45;100178.63;;;24.59;44.86
27805;BME280;15183;51.350;11.102;2022-07-23T01:08:12;100189.91;;;24.52;45.08
27805;BME280;15183;51.350;11.102;2022-07-23T01:10:39;100204.75;;;24.54;45.01
27805;BME280;15183;51.350;11.102;2022-07-23T01:13:09;100200.09;;;24.55;44.60
27805;BME280;15183;51.350;11.102;2022-07-23T01:15:38;100164.69;;;24.42;44.92
27805;BME280;15183;51.350;11.102;2022-07-23T01:18:06;100177.50;;;24.60;44.64
27805;BME280;15183;51.350;11.102;2022-07-23T01:20:33;100168.47;;;24.64;44.46
27805;BME280;15183;51.350;11.102;2022-07-23T01:22:59;100194.22;;;24.84;44.13
27805;BME280;15183;51.350;11.102;2022-07-23T01:25:26;100175.25;;;24.84;43.99
27805;BME280;15183;51.350;11.102;2022-07-23T01:27:53;100172.56;;;24.93;44.25
27805;BME280;15183;51.350;11.102;2022-07-23T01:30:20;100172.63;;;25.11;44.02
27805;BME280;15183;51.350;11.102;2022-07-23T01:32:46;100153.94;;;25.09;44.20
27805;BME280;15183;51.350;11.102;2022-07-23T01:35:13;100150.16;;;25.28;43.53
27805;BME280;15183;51.350;11.102;2022-07-23T01:37:39;100141.53;;;25.35;43.80
27805;BME280;15183;51.350;11.102;2022-07-23T01:40:06;100130.84;;;25.38;44.13
27805;BME280;15183;51.350;11.102;2022-07-23T01:42:33;100124.00;;;25.41;43.42
27805;BME280;15183;51.350;11.102;2022-07-23T01:45:00;100119.19;;;25.38;43.44
27805;BME280;15183;51.350;11.102;2022-07-23T01:47:27;100113.28;;;25.36;44.09
27805;BME280;15183;51.350;11.102;2022-07-23T01:49:53;100118.22;;;25.34;43.85
27805;BME280;15183;51.350;11.102;2022-07-23T01:52:20;100111.69;;;25.26;43.97
27805;BME280;15183;51.350;11.102;2022-07-23T01:54:46;100110.09;;;25.34;43.21
27805;BME280;15183;51.350;11.102;2022-07-23T01:57:13;100097.16;;;25.31;43.65
27805;BME280;15183;51.350;11.102;2022-07-23T01:59:39;100097.16;;;25.31;44.07
27805;BME280;15183;51.350;11.102;2022-07-23T02:02:05;100097.50;;;25.29;43.97
27805;BME280;15183;51.350;11.102;2022-07-23T02:04:32;100097.66;;;25.15;44.37
27805;BME280;15183;51.350;11.102;2022-07-23T02:07:04;100080.53;;;24.88;43.95
27805;BME280;15183;51.350;11.102;2022-07-23T02:09:31;100085.00;;;24.84;44.04
27805;BME280;15183;51.350;11.102;2022-07-23T02:11:57;100068.34;;;24.68;44.56
27805;BME280;15183;51.350;11.102;2022-07-23T02:14:25;100059.41;;;24.59;44.70
27805;BME280;15183;51.350;11.102;2022-07-23T02:16:52;100077.44;;;24.63;44.90
27805;BME280;15183;51.350;11.102;2022-07-23T02:19:18;100075.81;;;24.53;44.62
27805;BME280;15183;51.350;11.102;2022-07-23T02:21:45;100067.81;;;24.39;44.93
27805;BME280;15183;51.350;11.102;2022-07-23T02:24:11;100070.31;;;24.36;45.35
27805;BME280;15183;51.350;11.102;2022-07-23T02:26:38;100066.00;;;24.26;45.33
27805;BME280;15183;51.350;11.102;2022-07-23T02:29:05;100082.75;;;24.28;45.44
27805;BME280;15183;51.350;11.102;2022-07-23T02:31:31;100085.59;;;24.32;45.07
27805;BME280;15183;51.350;11.102;2022-07-23T02:33:58;100087.66;;;24.26;45.63
27805;BME280;15183;51.350;11.102;2022-07-23T02:36:24;100099.97;;;24.32;45.58
27805;BME280;15183;51.350;11.102;2022-07-23T02:38:51;100111.09;;;24.31;45.22
27805;BME280;15183;51.350;11.102;2022-07-23T02:41:17;100103.31;;;24.06;46.34
27805;BME280;15183;51.350;11.102;2022-07-23T02:43:44;100119.28;;;24.08;45.58
27805;BME280;15183;51.350;11.102;2022-07-23T02:46:10;100127.19;;;24.04;45.75
27805;BME280;15183;51.350;11.102;2022-07-23T02:48:37;100141.09;;;24.11;46.06
27805;BME280;15183;51.350;11.102;2022-07-23T02:51:03;100170.25;;;24.14;46.27
27805;BME280;15183;51.350;11.102;2022-07-23T02:53:30;100181.09;;;24.14;45.80
27805;BME280;15183;51.350;11.102;2022-07-23T02:59:28;100230.78;;;24.19;46.94
27805;BME280;15183;51.350;11.102;2022-07-23T03:01:55;100205.81;;;24.22;47.05
27805;BME280;15183;51.350;11.102;2022-07-23T03:04:21;100141.34;;;24.01;49.20
27805;BME280;15183;51.350;11.102;2022-07-23T03:06:47;100152.97;;;23.79;51.07
27805;BME280;15183;51.350;11.102;2022-07-23T03:09:14;100160.19;;;23.33;53.25
27805;BME280;15183;51.350;11.102;2022-07-23T03:11:40;100167.53;;;22.90;55.36
27805;BME280;15183;51.350;11.102;2022-07-23T03:14:07;100136.19;;;22.61;57.21
27805;BME280;15183;51.350;11.102;2022-07-23T03:16:33;100136.66;;;22.35;58.11
27805;BME280;15183;51.350;11.102;2022-07-23T03:19:00;100123.00;;;22.12;58.17
27805;BME280;15183;51.350;11.102;2022-07-23T03:21:26;100116.41;;;21.86;59.50
27805;BME280;15183;51.350;11.102;2022-07-23T03:23:53;100138.41;;;21.79;60.02
27805;BME280;15183;51.350;11.102;2022-07-23T03:26:19;100135.31;;;21.66;60.79
27805;BME280;15183;51.350;11.102;2022-07-23T03:28:45;100114.47;;;21.53;61.80
27805;BME280;15183;51.350;11.102;2022-07-23T03:31:12;100114.66;;;21.57;62.03
27805;BME280;15183;51.350;11.102;2022-07-23T03:33:38;100109.28;;;21.57;61.93
27805;BME280;15183;51.350;11.102;2022-07-23T03:36:05;100107.16;;;21.53;62.22
27805;BME280;15183;51.350;11.102;2022-07-23T03:38:31;100109.16;;;21.48;62.15
27805;BME280;15183;51.350;11.102;2022-07-23T03:40:58;100101.16;;;21.43;62.31
27805;BME280;15183;51.350;11.102;2022-07-23T03:43:24;100102.75;;;21.44;63.06
27805;BME280;15183;51.350;11.102;2022-07-23T03:45:52;100089.53;;;21.42;63.44
27805;BME280;15183;51.350;11.102;2022-07-23T03:48:18;100093.50;;;21.50;63.13
27805;BME280;15183;51.350;11.102;2022-07-23T03:50:45;100077.66;;;21.43;63.78
27805;BME280;15183;51.350;11.102;2022-07-23T03:53:12;100108.91;;;21.63;64.23
27805;BME280;15183;51.350;11.102;2022-07-23T03:55:38;100112.06;;;21.71;63.95
27805;BME280;15183;51.350;11.102;2022-07-23T03:58:05;100119.50;;;21.79;64.65
27805;BME280;15183;51.350;11.102;2022-07-23T04:00:31;100107.09;;;21.78;64.65
27805;BME280;15183;51.350;11.102;2022-07-23T04:02:57;100133.47;;;22.00;64.76
27805;BME280;15183;51.350;11.102;2022-07-23T04:05:24;100122.59;;;22.05;64.98
27805;BME280;15183;51.350;11.102;2022-07-23T04:07:50;100134.28;;;22.15;64.66
27805;BME280;15183;51.350;11.102;2022-07-23T04:10:17;100128.22;;;22.23;64.78
27805;BME280;15183;51.350;11.102;2022-07-23T04:12:43;100129.81;;;22.24;64.30
27805;BME280;15183;51.350;11.102;2022-07-23T04:15:10;100144.44;;;22.37;64.21
27805;BME280;15183;51.350;11.102;2022-07-23T04:17:36;100153.03;;;22.39;64.70
27805;BME280;15183;51.350;11.102;2022-07-23T04:20:04;100170.75;;;22.45;64.36
27805;BME280;15183;51.350;11.102;2022-07-23T04:22:30;100178.28;;;22.48;64.29
27805;BME280;15183;51.350;11.102;2022-07-23T04:24:57;100186.22;;;22.59;64.67
27805;BME280;15183;51.350;11.102;2022-07-23T04:27:23;100186.91;;;22.64;64.46
27805;BME280;15183;51.350;11.102;2022-07-23T04:29:50;100182.09;;;22.61;64.55
27805;BME280;15183;51.350;11.102;2022-07-23T04:32:16;100181.59;;;22.59;65.20
27805;BME280;15183;51.350;11.102;2022-07-23T04:34:43;100162.50;;;22.55;65.74
27805;BME280;15183;51.350;11.102;2022-07-23T04:37:09;100176.25;;;22.40;65.90
27805;BME280;15183;51.350;11.102;2022-07-23T04:39:36;100160.28;;;22.10;66.36
27805;BME280;15183;51.350;11.102;2022-07-23T04:42:02;100167.09;;;21.89;66.68
27805;BME280;15183;51.350;11.102;2022-07-23T04:44:29;100161.34;;;21.76;67.24
27805;BME280;15183;51.350;11.102;2022-07-23T04:46:55;100155.59;;;21.64;68.15
27805;BME280;15183;51.350;11.102;2022-07-23T04:49:21;100149.28;;;21.49;68.04
27805;BME280;15183;51.350;11.102;2022-07-23T04:51:48;100150.75;;;21.42;68.81
27805;BME280;15183;51.350;11.102;2022-07-23T04:54:14;100143.31;;;21.33;69.42
27805;BME280;15183;51.350;11.102;2022-07-23T04:56:41;100146.31;;;21.32;68.97
27805;BME280;15183;51.350;11.102;2022-07-23T04:59:07;100164.59;;;21.35;69.39
27805;BME280;15183;51.350;11.102;2022-07-23T05:01:33;100119.69;;;21.06;69.45
27805;BME280;15183;51.350;11.102;2022-07-23T05:04:00;100173.19;;;21.37;70.18
27805;BME280;15183;51.350;11.102;2022-07-23T05:06:27;100180.69;;;21.40;69.83
27805;BME280;15183;51.350;11.102;2022-07-23T05:08:53;100174.44;;;21.45;70.41
27805;BME280;15183;51.350;11.102;2022-07-23T05:11:21;100165.97;;;21.51;70.39
27805;BME280;15183;51.350;11.102;2022-07-23T05:13:47;100177.44;;;21.62;70.08
27805;BME280;15183;51.350;11.102;2022-07-23T05:16:14;100169.09;;;21.64;70.26
27805;BME280;15183;51.350;11.102;2022-07-23T05:18:40;100150.22;;;21.64;69.90
27805;BME280;15183;51.350;11.102;2022-07-23T05:21:07;100169.34;;;21.81;69.84
27805;BME280;15183;51.350;11.102;2022-07-23T05:23:33;100165.19;;;21.89;70.30
27805;BME280;15183;51.350;11.102;2022-07-23T05:26:00;100165.84;;;22.00;70.11
27805;BME280;15183;51.350;11.102;2022-07-23T05:28:26;100170.56;;;22.08;70.53
27805;BME280;15183;51.350;11.102;2022-07-23T05:30:52;100160.69;;;22.18;70.26
27805;BME280;15183;51.350;11.102;2022-07-23T05:33:19;100151.22;;;22.20;69.88
27805;BME280;15183;51.350;11.102;2022-07-23T05:35:46;100165.75;;;22.38;69.78
27805;BME280;15183;51.350;11.102;2022-07-23T05:38:12;100150.78;;;22.46;69.87
27805;BME280;15183;51.350;11.102;2022-07-23T05:40:38;100128.88;;;22.48;69.83
27805;BME280;15183;51.350;11.102;2022-07-23T05:43:05;100126.59;;;22.55;69.65
27805;BME280;15183;51.350;11.102;2022-07-23T05:45:31;100133.72;;;22.65;69.47
27805;BME280;15183;51.350;11.102;2022-07-23T05:47:58;100144.53;;;22.79;69.51
27805;BME280;15183;51.350;11.102;2022-07-23T05:50:24;100135.31;;;22.80;69.72
27805;BME280;15183;51.350;11.102;2022-07-23T05:52:51;100130.91;;;22.98;69.88
27805;BME280;15183;51.350;11.102;2022-07-23T05:55:17;100141.59;;;23.17;69.73
27805;BME280;15183;51.350;11.102;2022-07-23T05:57:44;100154.19;;;23.36;69.87
27805;BME280;15183;51.350;11.102;2022-07-23T06:00:11;100157.91;;;23.63;69.64
27805;BME280;15183;51.350;11.102;2022-07-23T06:02:38;100155.91;;;23.91;69.09
27805;BME280;15183;51.350;11.102;2022-07-23T06:05:06;100159.28;;;24.20;69.17
27805;BME280;15183;51.350;11.102;2022-07-23T06:07:34;100162.59;;;24.39;68.77
27805;BME280;15183;51.350;11.102;2022-07-23T06:10:00;100151.00;;;24.48;68.36
27805;BME280;15183;51.350;11.102;2022-07-23T06:12:27;100183.03;;;24.77;68.50
27805;BME280;15183;51.350;11.102;2022-07-23T06:14:53;100156.84;;;24.73;68.08
27805;BME280;15183;51.350;11.102;2022-07-23T06:17:20;100173.78;;;24.78;67.88
27805;BME280;15183;51.350;11.102;2022-07-23T06:19:46;100186.59;;;24.87;67.72
27805;BME280;15183;51.350;11.102;2022-07-23T06:22:13;100178.44;;;24.87;67.37
27805;BME280;15183;51.350;11.102;2022-07-23T06:24:39;100162.19;;;24.87;66.97
27805;BME280;15183;51.350;11.102;2022-07-23T06:27:05;100167.75;;;24.81;65.84
27805;BME280;15183;51.350;11.102;2022-07-23T06:29:32;100156.09;;;24.81;66.13
27805;BME280;15183;51.350;11.102;2022-07-23T06:31:58;100164.88;;;24.78;65.87
27805;BME280;15183;51.350;11.102;2022-07-23T06:34:25;100174.94;;;24.86;65.76
27805;BME280;15183;51.350;11.102;2022-07-23T06:36:51;100162.50;;;24.85;65.72
27805;BME280;15183;51.350;11.102;2022-07-23T06:39:18;100156.09;;;24.81;65.61
27805;BME280;15183;51.350;11.102;2022-07-23T06:41:44;100170.09;;;24.74;65.52
27805;BME280;15183;51.350;11.102;2022-07-23T06:44:11;100171.94;;;24.65;64.97
27805;BME280;15183;51.350;11.102;2022-07-23T06:46:37;100172.38;;;24.49;64.66
27805;BME280;15183;51.350;11.102;2022-07-23T06:49:04;100172.31;;;24.40;64.99
27805;BME280;15183;51.350;11.102;2022-07-23T06:51:30;100166.69;;;24.28;64.94
27805;BME280;15183;51.350;11.102;2022-07-23T06:53:57;100166.75;;;24.14;64.90
27805;BME280;15183;51.350;11.102;2022-07-23T06:56:23;100175.44;;;24.02;65.34
27805;BME280;15183;51.350;11.102;2022-07-23T06:58:49;100179.84;;;23.98;65.29
27805;BME280;15183;51.350;11.102;2022-07-23T07:01:16;100170.13;;;23.97;66.20
27805;BME280;15183;51.350;11.102;2022-07-23T07:03:42;100184.16;;;23.99;66.16
27805;BME280;15183;51.350;11.102;2022-07-23T07:06:09;100177.03;;;24.03;65.82
27805;BME280;15183;51.350;11.102;2022-07-23T07:08:36;100184.41;;;24.11;66.11
27805;BME280;15183;51.350;11.102;2022-07-23T07:11:03;100173.31;;;24.22;66.17
27805;BME280;15183;51.350;11.102;2022-07-23T07:13:30;100189.81;;;24.34;65.73
27805;BME280;15183;51.350;11.102;2022-07-23T07:15:57;100186.50;;;24.37;65.21
27805;BME280;15183;51.350;11.102;2022-07-23T07:18:23;100194.19;;;24.53;65.47
27805;BME280;15183;51.350;11.102;2022-07-23T07:20:50;100181.16;;;24.55;65.27
27805;BME280;15183;51.350;11.102;2022-07-23T07:23:16;100175.09;;;24.58;65.30
27805;BME280;15183;51.350;11.102;2022-07-23T07:25:42;100203.22;;;24.71;64.46
27805;BME280;15183;51.350;11.102;2022-07-23T07:28:09;100203.34;;;24.66;64.73
27805;BME280;15183;51.350;11.102;2022-07-23T07:30:35;100222.03;;;24.67;65.37
27805;BME280;15183;51.350;11.102;2022-07-23T07:33:02;100220.28;;;24.71;65.60
27805;BME280;15183;51.350;11.102;2022-07-23T07:35:28;100218.72;;;24.79;65.06
27805;BME280;15183;51.350;11.102;2022-07-23T07:37:55;100226.38;;;24.77;64.84
27805;BME280;15183;51.350;11.102;2022-07-23T07:40:21;100213.56;;;24.69;64.87
27805;BME280;15183;51.350;11.102;2022-07-23T07:42:53;100230.19;;;24.76;64.59
27805;BME280;15183;51.350;11.102;2022-07-23T07:45:21;100226.00;;;24.70;64.83
27805;BME280;15183;51.350;11.102;2022-07-23T07:47:47;100213.00;;;24.49;64.39
27805;BME280;15183;51.350;11.102;2022-07-23T07:50:14;100232.00;;;24.58;65.21
27805;BME280;15183;51.350;11.102;2022-07-23T07:52:41;100219.06;;;24.55;64.60
27805;BME280;15183;51.350;11.102;2022-07-23T07:55:09;100218.44;;;24.49;64.76
27805;BME280;15183;51.350;11.102;2022-07-23T07:57:36;100234.34;;;24.51;64.87
27805;BME280;15183;51.350;11.102;2022-07-23T08:00:05;100241.22;;;24.48;64.66
27805;BME280;15183;51.350;11.102;2022-07-23T08:02:51;100226.63;;;24.35;64.84
27805;BME280;15183;51.350;11.102;2022-07-23T08:05:27;100242.06;;;24.35;64.68
27805;BME280;15183;51.350;11.102;2022-07-23T08:07:54;100253.72;;;24.35;64.60
27805;BME280;15183;51.350;11.102;2022-07-23T08:10:22;100246.69;;;24.34;64.96
27805;BME280;15183;51.350;11.102;2022-07-23T08:12:51;100253.50;;;24.32;64.57
27805;BME280;15183;51.350;11.102;2022-07-23T08:15:20;100253.22;;;24.33;64.57
27805;BME280;15183;51.350;11.102;2022-07-23T08:17:48;100259.47;;;24.42;64.83
27805;BME280;15183;51.350;11.102;2022-07-23T08:20:18;100251.22;;;24.48;65.07
27805;BME280;15183;51.350;11.102;2022-07-23T08:23:03;100252.03;;;24.48;64.47
27805;BME280;15183;51.350;11.102;2022-07-23T08:25:41;100268.31;;;24.57;64.68
27805;BME280;15183;51.350;11.102;2022-07-23T08:28:11;100258.94;;;24.54;64.75
27805;BME280;15183;51.350;11.102;2022-07-23T08:30:40;100267.22;;;24.58;64.53
27805;BME280;15183;51.350;11.102;2022-07-23T08:33:10;100253.94;;;24.48;63.90
27805;BME280;15183;51.350;11.102;2022-07-23T08:35:47;100266.56;;;24.52;64.22
27805;BME280;15183;51.350;11.102;2022-07-23T08:38:17;100274.44;;;24.63;64.07
27805;BME280;15183;51.350;11.102;2022-07-23T08:40:53;100283.72;;;24.70;63.87
27805;BME280;15183;51.350;11.102;2022-07-23T08:43:23;100287.72;;;24.73;64.07
27805;BME280;15183;51.350;11.102;2022-07-23T08:45:53;100291.22;;;24.74;63.34
27805;BME280;15183;51.350;11.102;2022-07-23T08:48:26;100274.22;;;24.59;63.67
27805;BME280;15183;51.350;11.102;2022-07-23T08:50:55;100285.75;;;24.65;63.27
27805;BME280;15183;51.350;11.102;2022-07-23T08:53:24;100283.97;;;24.60;63.12
27805;BME280;15183;51.350;11.102;2022-07-23T08:55:54;100286.50;;;24.56;63.06
27805;BME280;15183;51.350;11.102;2022-07-23T08:58:22;100294.00;;;24.60;63.41
27805;BME280;15183;51.350;11.102;2022-07-23T09:00:50;100285.81;;;24.51;62.83
27805;BME280;15183;51.350;11.102;2022-07-23T09:03:21;100273.66;;;24.39;63.18
27805;BME280;15183;51.350;11.102;2022-07-23T09:05:53;100288.53;;;24.51;63.17
27805;BME280;15183;51.350;11.102;2022-07-23T09:08:22;100281.50;;;24.50;63.24
27805;BME280;15183;51.350;11.102;2022-07-23T09:10:51;100294.00;;;24.60;63.31
27805;BME280;15183;51.350;11.102;2022-07-23T09:13:50;100289.88;;;24.62;62.31
27805;BME280;15183;51.350;11.102;2022-07-23T09:16:23;100285.56;;;24.61;62.19
27805;BME280;15183;51.350;11.102;2022-07-23T09:18:59;100290.25;;;24.69;62.22
27805;BME280;15183;51.350;11.102;2022-07-23T09:24:19;100301.22;;;24.87;62.74
27805;BME280;15183;51.350;11.102;2022-07-23T09:26:48;100296.28;;;24.89;62.78
27805;BME280;15183;51.350;11.102;2022-07-23T09:29:24;100297.75;;;24.95;62.15
27805;BME280;15183;51.350;11.102;2022-07-23T09:32:00;100293.56;;;24.89;61.58
27805;BME280;15183;51.350;11.102;2022-07-23T09:34:36;100298.38;;;24.92;61.90
27805;BME280;15183;51.350;11.102;2022-07-23T09:37:17;100291.47;;;24.86;61.39
27805;BME280;15183;51.350;11.102;2022-07-23T09:39:46;100297.59;;;24.92;61.60
27805;BME280;15183;51.350;11.102;2022-07-23T09:44:44;100298.00;;;25.17;60.80
27805;BME280;15183;51.350;11.102;2022-07-23T09:47:11;100304.59;;;25.33;60.51
27805;BME280;15183;51.350;11.102;2022-07-23T09:49:37;100300.63;;;25.39;60.31
27805;BME280;15183;51.350;11.102;2022-07-23T09:52:04;100297.78;;;25.44;60.00
27805;BME280;15183;51.350;11.102;2022-07-23T09:54:35;100306.13;;;25.48;59.29
27805;BME280;15183;51.350;11.102;2022-07-23T09:57:05;100317.16;;;25.61;59.61
27805;BME280;15183;51.350;11.102;2022-07-23T09:59:36;100298.97;;;25.70;59.89
27805;BME280;15183;51.350;11.102;2022-07-23T10:02:06;100308.91;;;26.01;58.77
27805;BME280;15183;51.350;11.102;2022-07-23T10:04:35;100303.69;;;26.31;58.88
27805;BME280;15183;51.350;11.102;2022-07-23T10:07:04;100295.19;;;26.59;58.77
27805;BME280;15183;51.350;11.102;2022-07-23T10:09:34;100294.31;;;26.85;58.26
27805;BME280;15183;51.350;11.102;2022-07-23T10:12:05;100306.19;;;27.19;58.00
27805;BME280;15183;51.350;11.102;2022-07-23T10:14:47;100301.63;;;27.41;57.34
27805;BME280;15183;51.350;11.102;2022-07-23T10:17:15;100301.97;;;27.69;57.37
27805;BME280;15183;51.350;11.102;2022-07-23T10:19:42;100306.75;;;27.94;56.59
27805;BME280;15183;51.350;11.102;2022-07-23T10:22:31;100303.06;;;28.20;55.86
27805;BME280;15183;51.350;11.102;2022-07-23T10:36:56;100300.13;;;29.29;53.84
27805;BME280;15183;51.350;11.102;2022-07-23T10:39:31;100295.91;;;29.57;53.70
27805;BME280;15183;51.350;11.102;2022-07-23T10:42:16;100307.50;;;29.79;53.35
27805;BME280;15183;51.350;11.102;2022-07-23T10:44:45;100293.00;;;29.90;52.32
27805;BME280;15183;51.350;11.102;2022-07-23T10:47:28;100302.16;;;30.11;51.91
27805;BME280;15183;51.350;11.102;2022-07-23T10:58:05;100276.06;;;30.70;50.35
27805;BME280;15183;51.350;11.102;2022-07-23T11:00:34;100286.81;;;30.79;50.07
27805;BME280;15183;51.350;11.102;2022-07-23T11:03:04;100284.78;;;30.76;49.69
27805;BME280;15183;51.350;11.102;2022-07-23T11:05:44;100282.56;;;30.66;49.43
27805;BME280;15183;51.350;11.102;2022-07-23T11:08:21;100291.06;;;30.60;49.79
27805;BME280;15183;51.350;11.102;2022-07-23T11:10:55;100294.00;;;30.55;49.93
27805;BME280;15183;51.350;11.102;2022-07-23T11:24:08;100278.91;;;30.45;49.55
27805;BME280;15183;51.350;11.102;2022-07-23T11:37:00;100269.00;;;30.69;48.53
27805;BME280;15183;51.350;11.102;2022-07-23T11:39:29;100272.09;;;30.84;48.79
27805;BME280;15183;51.350;11.102;2022-07-23T11:41:57;100277.00;;;30.94;47.76
27805;BME280;15183;51.350;11.102;2022-07-23T11:44:33;100274.63;;;31.09;48.00
27805;BME280;15183;51.350;11.102;2022-07-23T11:47:09;100272.25;;;31.23;47.55
27805;BME280;15183;51.350;11.102;2022-07-23T11:49:36;100260.94;;;31.25;46.99
27805;BME280;15183;51.350;11.102;2022-07-23T11:52:11;100248.91;;;31.29;46.82
27805;BME280;15183;51.350;11.102;2022-07-23T11:55:01;100274.78;;;31.48;46.32
27805;BME280;15183;51.350;11.102;2022-07-23T11:57:34;100251.47;;;31.38;46.50
27805;BME280;15183;51.350;11.102;2022-07-23T12:00:17;100271.66;;;31.50;45.86
27805;BME280;15183;51.350;11.102;2022-07-23T12:02:47;100249.50;;;31.39;46.44
27805;BME280;15183;51.350;11.102;2022-07-23T12:05:16;100266.31;;;31.37;45.67
27805;BME280;15183;51.350;11.102;2022-07-23T12:07:49;100261.66;;;31.22;46.23
27805;BME280;15183;51.350;11.102;2022-07-23T12:12:58;100228.75;;;30.86;45.99
27805;BME280;15183;51.350;11.102;2022-07-23T12:15:39;100252.94;;;30.84;46.08
27805;BME280;15183;51.350;11.102;2022-07-23T12:18:09;100244.38;;;30.69;45.85
27805;BME280;15183;51.350;11.102;2022-07-23T12:20:42;100250.03;;;30.48;46.48
27805;BME280;15183;51.350;11.102;2022-07-23T12:23:12;100241.16;;;30.35;46.70
27805;BME280;15183;51.350;11.102;2022-07-23T12:25:42;100237.75;;;30.26;46.66
27805;BME280;15183;51.350;11.102;2022-07-23T12:28:20;100238.38;;;30.19;46.84
27805;BME280;15183;51.350;11.102;2022-07-23T12:30:49;100236.69;;;30.14;46.22
27805;BME280;15183;51.350;11.102;2022-07-23T12:33:37;100233.41;;;30.09;46.58
27805;BME280;15183;51.350;11.102;2022-07-23T12:36:07;100245.16;;;30.09;46.10
27805;BME280;15183;51.350;11.102;2022-07-23T12:38:46;100230.94;;;30.03;46.75
27805;BME280;15183;51.350;11.102;2022-07-23T12:41:13;100234.34;;;30.00;46.11
27805;BME280;15183;51.350;11.102;2022-07-23T12:43:43;100237.19;;;29.92;46.23
27805;BME280;15183;51.350;11.102;2022-07-23T12:46:18;100241.06;;;29.90;46.30
27805;BME280;15183;51.350;11.102;2022-07-23T12:53:53;100243.47;;;30.21;46.11
27805;BME280;15183;51.350;11.102;2022-07-23T12:56:43;100218.19;;;30.24;46.07
27805;BME280;15183;51.350;11.102;2022-07-23T12:59:14;100216.00;;;30.29;45.81
27805;BME280;15183;51.350;11.102;2022-07-23T13:01:55;100221.56;;;30.33;45.59
27805;BME280;15183;51.350;11.102;2022-07-23T13:04:22;100231.53;;;30.41;45.81
27805;BME280;15183;51.350;11.102;2022-07-23T13:06:58;100224.81;;;30.39;45.76
27805;BME280;15183;51.350;11.102;2022-07-23T13:09:32;100231.34;;;30.34;45.74
27805;BME280;15183;51.350;11.102;2022-07-23T13:11:59;100219.59;;;30.17;45.33
27805;BME280;15183;51.350;11.102;2022-07-23T13:14:27;100223.53;;;30.04;46.00
27805;BME280;15183;51.350;11.102;2022-07-23T13:16:55;100217.41;;;29.95;46.02
27805;BME280;15183;51.350;11.102;2022-07-23T13:19:21;100217.16;;;30.00;45.09
27805;BME280;15183;51.350;11.102;2022-07-23T13:21:48;100214.63;;;30.07;45.44
27805;BME280;15183;51.350;11.102;2022-07-23T13:24:15;100211.19;;;30.10;45.44
27805;BME280;15183;51.350;11.102;2022-07-23T13:26:42;100222.94;;;30.27;45.08
27805;BME280;15183;51.350;11.102;2022-07-23T13:29:09;100217.44;;;30.39;44.42
27805;BME280;15183;51.350;11.102;2022-07-23T13:31:36;100214.50;;;30.48;43.63
27805;BME280;15183;51.350;11.102;2022-07-23T13:34:03;100199.59;;;30.45;42.73
27805;BME280;15183;51.350;11.102;2022-07-23T13:36:30;100207.19;;;30.52;42.76
27805;BME280;15183;51.350;11.102;2022-07-23T13:38:57;100212.75;;;30.56;42.79
27805;BME280;15183;51.350;11.102;2022-07-23T13:41:23;100198.00;;;30.44;41.90
27805;BME280;15183;51.350;11.102;2022-07-23T13:43:49;100195.53;;;30.23;39.41
27805;BME280;15183;51.350;11.102;2022-07-23T13:46:16;100200.09;;;30.03;38.14